St. HILARI SACALM (La Selva)





Hora UTC 10:15
Temperatura 22.8 ºC
Sòl 15 cm 36.2 ºC
Humitat 57.4 %
Pressió 1016.7 hPa
Pluja 0.0 mm
Velocitat vent 7.7 km/h
Direcció vent ENE
Radiació solar 850.0 W/m²

Dades diàries 2024-06-18



Hora UTC (hivern +1h; estiu +2h)
Temperatura (ºC) Humitat (%) Pressió (hPa) Velocitat vent (km/h) Precipitació (mm) Radiació solar (W/m²)
Hora UTC Aire Sòl 15 cm Humitat Pressió Vel. Dir. Vel. Max Dir. Intent. màx 5 min. Rad. Sol.
00:05 17.1 11.6 71.7 1017.2 4.4 S 4.4 SSE 0.0 0.1
00:10 17.5 11.8 70.0 1017.2 5.5 SSE 11.5 SE 0.0 0.1
00:15 18.2 12.2 66.5 1017.1 7.3 SE 14.2 ESE 0.0 0.1
00:20 18.3 12.3 66.5 1017.1 4.4 SE 14.2 SE 0.0 0.1
00:25 18.1 12.5 68.2 1017.1 8.1 SSE 16.9 SSE 0.0 0.1
00:30 18.0 12.7 69.3 1017.0 7.3 SSE 16.9 SSW 0.0 0.1
00:35 17.9 12.8 69.6 1016.9 7.0 SSE 16.9 SSE 0.0 0.1
00:40 17.7 12.7 70.3 1016.8 6.3 SSE 14.2 SSE 0.0 0.1
00:45 17.7 12.6 70.4 1016.8 6.5 SSE 11.5 SSE 0.0 0.1
00:50 17.6 12.5 71.2 1016.8 5.6 SSE 11.5 SSE 0.0 0.1
00:55 17.4 12.4 72.3 1016.7 5.1 S 8.8 SSE 0.0 0.1
01:00 17.2 12.2 73.8 1016.7 6.0 S 11.5 S 0.0 0.1
01:05 17.3 12.2 74.2 1016.6 5.8 S 11.5 S 0.0 0.1
01:10 17.3 12.1 74.6 1016.5 5.4 SSW 11.5 S 0.0 0.1
01:15 17.1 11.9 75.5 1016.5 5.4 SSW 11.5 S 0.0 0.1
01:20 16.7 11.8 75.8 1016.5 4.7 WSW 8.8 W 0.0 0.1
01:25 16.1 11.8 77.9 1016.5 4.9 WSW 8.8 WSW 0.0 0.1
01:30 15.8 11.7 80.1 1016.4 3.3 WSW 8.8 W 0.0 0.1
01:35 15.6 11.4 81.1 1016.4 2.4 WSW 6.1 W 0.0 0.1
01:40 15.4 11.1 81.8 1016.4 1.2 SW 6.1 WSW 0.0 0.1
01:45 15.4 10.9 82.0 1016.4 1.1 S 3.4 S 0.0 0.1
01:50 15.4 10.7 81.7 1016.5 2.6 SW 6.1 WSW 0.0 0.1
01:55 15.1 10.9 82.6 1016.4 3.9 WSW 8.8 SW 0.0 0.1
02:00 14.8 11.0 84.1 1016.3 1.7 WSW 6.1 W 0.0 0.1
02:05 14.6 11.1 85.0 1016.2 3.4 WSW 8.8 WSW 0.0 0.1
02:10 14.5 11.1 85.6 1016.1 4.3 W 8.8 W 0.0 0.1
02:15 14.5 10.9 85.1 1016.0 4.2 W 11.5 WSW 0.0 0.1
02:20 14.7 10.8 83.6 1015.9 4.1 WNW 8.8 NW 0.0 0.1
02:25 14.9 10.7 82.1 1015.9 2.4 W 8.8 W 0.0 0.1
02:30 14.6 10.6 82.8 1015.7 2.9 WSW 8.8 W 0.0 0.1
02:35 14.4 10.6 84.1 1015.7 3.9 WSW 8.8 SW 0.0 0.1
02:40 14.2 10.4 85.0 1015.7 4.1 WSW 8.8 W 0.0 0.1
02:45 14.2 10.4 85.3 1015.6 4.7 W 8.8 W 0.0 0.1
02:50 14.1 10.3 85.2 1015.6 4.4 W 8.8 WNW 0.0 0.1
02:55 14.1 10.3 85.3 1015.6 3.0 W 8.8 W 0.0 0.1
03:00 14.1 10.3 85.5 1015.6 2.2 W 6.1 W 0.0 0.1
03:05 14.3 10.2 85.0 1015.6 3.2 W 8.8 W 0.0 0.1
03:10 14.6 10.2 83.5 1015.6 2.0 WSW 6.1 W 0.0 0.1
03:15 14.9 10.2 82.0 1015.6 2.0 WSW 6.1 WSW 0.0 0.1
03:20 14.9 10.3 82.2 1015.6 2.3 S 6.1 S 0.0 0.1
03:25 14.7 10.3 83.0 1015.7 2.3 SSW 6.1 SSW 0.0 0.1
03:30 14.6 10.4 83.6 1015.7 1.4 S 6.1 SSE 0.0 0.1
03:35 14.5 10.3 83.9 1015.6 3.3 SSW 8.8 WSW 0.0 0.1
03:40 14.5 10.3 83.9 1015.6 2.4 SSW 6.1 WSW 0.0 0.1
03:45 14.5 10.4 83.9 1015.6 0.7 SSW 3.4 S 0.0 0.1
03:50 14.5 10.5 83.7 1015.6 0.7 SSW 3.4 SSW 0.0 0.1
03:55 14.4 10.4 84.5 1015.7 0.9 SW 6.1 WSW 0.0 0.2
04:00 14.4 10.4 84.9 1015.7 1.7 WSW 6.1 W 0.0 0.3
04:05 14.4 10.4 84.7 1015.7 2.8 WSW 8.8 WSW 0.0 0.5
04:10 14.2 10.4 85.6 1015.6 2.4 WSW 8.8 W 0.0 1.0
04:15 14.2 10.3 86.1 1015.6 2.7 WSW 6.1 S 0.0 1.9
04:20 14.2 10.2 86.3 1015.5 2.0 W 8.8 W 0.0 3.4
04:25 14.2 10.2 86.7 1015.5 1.9 WSW 6.1 W 0.0 5.2
04:30 14.2 10.3 86.9 1015.4 1.5 W 8.8 W 0.0 7.4
04:35 14.2 10.5 86.7 1015.4 2.2 WSW 8.8 W 0.0 10.3
04:40 14.2 10.7 86.6 1015.4 2.1 WSW 8.8 W 0.0 13.6
04:45 14.1 10.7 87.3 1015.4 3.0 WSW 8.8 W 0.0 16.6
04:50 14.1 10.8 87.3 1015.4 3.4 WSW 8.8 W 0.0 19.4
04:55 14.2 10.8 87.4 1015.4 2.6 SW 6.1 SSW 0.0 22.7
05:00 14.2 10.8 87.3 1015.4 2.0 WSW 6.1 SW 0.0 26.1
05:05 14.3 10.9 87.2 1015.5 1.5 WSW 6.1 WSW 0.0 31.1
05:10 14.5 11.1 86.5 1015.5 2.9 SW 6.1 WSW 0.0 79.7
05:15 14.9 11.5 84.6 1015.5 1.3 S 3.4 SSW 0.0 99.1
05:20 15.2 11.7 83.6 1015.5 1.4 S 3.4 S 0.0 111.7
05:25 15.7 11.9 81.8 1015.5 0.6 SSW 3.4 SSW 0.0 125.2
05:30 16.2 12.2 79.8 1015.6 0.7 S 3.4 SSW 0.0 138.9
05:35 16.8 12.6 77.6 1015.6 1.4 S 3.4 SSE 0.0 152.9
05:40 17.2 13.1 75.9 1015.7 0.9 S 3.4 S 0.0 166.5
05:45 17.9 13.5 73.0 1015.8 0.4 S 3.4 SSW 0.0 180.9
05:50 18.4 14.0 70.0 1015.8 3.2 SSE 8.8 SSE 0.0 196.0
05:55 19.1 14.4 64.7 1015.9 2.6 SSE 6.1 SSE 0.0 211.4
06:00 20.0 14.9 59.6 1015.9 0.7 SSE 6.1 SE 0.0 226.8
06:05 20.6 15.2 56.4 1016.0 2.9 SSE 6.1 SSE 0.0 242.1
06:10 21.0 15.3 54.5 1016.1 3.7 SSE 8.8 SSW 0.0 257.5
06:15 21.1 15.5 53.5 1016.1 3.4 S 8.8 SE 0.0 272.8
06:20 21.2 15.9 53.1 1016.2 4.0 SSE 8.8 SSE 0.0 287.9
06:25 21.2 16.4 54.3 1016.3 2.3 S 6.1 S 0.0 303.5
06:30 21.4 16.9 52.7 1016.3 4.8 SSE 11.5 SSE 0.0 319.1
06:35 21.8 17.1 51.1 1016.3 4.4 SSE 11.5 S 0.0 335.9
06:40 21.7 17.4 50.3 1016.3 5.2 SE 14.2 SE 0.0 352.3
06:45 21.2 17.4 51.0 1016.3 7.4 SE 14.2 S 0.0 367.7
06:50 21.2 17.9 52.5 1016.4 6.1 SE 11.5 ESE 0.0 380.8
06:55 20.9 18.4 53.7 1016.4 5.6 SE 14.2 SSE 0.0 395.2
07:00 20.9 18.7 56.2 1016.5 5.1 ESE 11.5 E 0.0 405.5
07:05 21.0 19.1 56.0 1016.5 4.9 SE 8.8 ESE 0.0 423.2
07:10 21.3 19.9 58.3 1016.4 3.2 E 6.1 SE 0.0 438.3
07:15 21.5 20.7 59.2 1016.4 3.9 ENE 8.8 E 0.0 451.4
07:20 21.7 21.6 59.8 1016.4 3.9 NE 8.8 ENE 0.0 468.9
07:25 21.7 22.8 59.5 1016.4 5.0 ENE 11.5 E 0.0 484.2
07:30 21.7 23.9 60.2 1016.4 5.6 NE 11.5 NE 0.0 497.1
07:35 21.6 24.8 58.8 1016.4 5.1 ENE 11.5 NE 0.0 511.8
07:40 21.7 25.6 59.0 1016.3 5.6 ENE 8.8 NE 0.0 526.1
07:45 21.9 26.3 58.3 1016.3 4.3 ENE 11.5 ENE 0.0 540.9
07:50 22.0 26.7 58.0 1016.3 2.9 ENE 6.1 ENE 0.0 554.7
07:55 22.1 26.9 57.5 1016.2 5.2 NE 8.8 NNE 0.0 568.8
08:00 22.1 27.3 58.4 1016.1 3.3 NE 6.1 ENE 0.0 582.7
08:05 22.6 28.0 57.8 1016.1 5.5 N 11.5 N 0.0 597.6
08:10 22.8 28.2 58.2 1016.2 4.2 N 8.8 NNE 0.0 611.0
08:15 23.3 28.9 55.0 1016.2 2.7 E 8.8 E 0.0 624.4
08:20 22.9 29.4 54.1 1016.3 8.0 ENE 16.9 ENE 0.0 637.1
08:25 22.9 29.9 54.4 1016.3 4.3 ENE 11.5 ENE 0.0 649.4
08:30 23.0 30.4 54.4 1016.3 6.8 ENE 14.2 ENE 0.0 660.8
08:35 22.9 30.6 55.9 1016.3 6.1 NE 14.2 ENE 0.0 672.5
08:40 22.8 30.9 56.8 1016.2 8.8 NE 16.9 NE 0.0 681.8
08:45 22.7 31.2 57.4 1016.3 6.7 NE 11.5 E 0.0 692.6
08:50 23.1 31.8 58.2 1016.2 7.3 NNE 14.2 ENE 0.0 703.5
08:55 23.3 32.1 55.7 1016.3 7.0 ENE 14.2 ENE 0.0 643.6
09:00 23.0 32.5 57.2 1016.3 8.8 ENE 16.9 E 0.0 725.1
09:05 22.7 32.8 59.3 1016.3 9.1 ENE 16.9 ENE 0.0 736.0
09:10 22.6 32.9 60.4 1016.3 9.4 ENE 22.3 E 0.0 746.1
09:15 22.7 33.1 61.0 1016.3 5.9 ENE 14.2 E 0.0 755.3
09:20 22.9 33.4 60.6 1016.3 6.8 ENE 14.2 E 0.0 764.0
09:25 22.8 33.7 60.2 1016.4 8.2 NE 16.9 NE 0.0 772.8
09:30 22.4 33.9 60.2 1016.4 9.5 ENE 14.2 ENE 0.0 782.4
09:35 22.4 33.9 61.1 1016.5 10.0 ENE 16.9 ENE 0.0 789.3
09:40 22.4 34.0 60.5 1016.5 9.5 ENE 22.3 ENE 0.0 798.0
09:45 22.3 34.4 60.9 1016.5 7.3 ENE 22.3 ENE 0.0 807.0
09:50 22.8 34.8 59.9 1016.6 8.3 ENE 16.9 ENE 0.0 815.0
09:55 22.7 35.3 60.4 1016.6 8.6 E 19.6 ENE 0.0 824.0
10:00 22.8 35.7 58.4 1016.7 7.7 E 16.9 ENE 0.0 830.0
10:05 22.9 36.0 58.9 1016.6 7.7 ENE 16.9 ENE 0.0 837.0
10:10 23.1 36.2 57.2 1016.7 7.6 ENE 16.9 E 0.0 843.0
10:15 22.8 36.2 57.4 1016.7 7.7 ENE 14.2 E 0.0 850.0
Màxima 23.4 36.2 87.4 1017.2 10.0 ENE 22.3 ENE 0.0 850.0
Mínima 14.1 10.2 50.3 1015.4
Total 0.0